Jupiter Inlet, Florida
Current Conditions -  °F | °C
As of 2:47 PM on Tuesday 27 Jan 2015 (Local Time) from KSUA Reporting Station
Clear Clear  
Wind Chill: 66°   Ceiling: Unl
Heat Index: 66°   Visibility: 7mi
Dew Point: 37°   Wind: 18mph
Humidity: 35%   Direction: 250°WSW
Pressure: 29.97"   Gusts: 25mph
Location:  26.9832°N, 80.1°W
Report Text: KSUA 271947Z 25016G22KT 7SM SKC 19/03 A2997
Loading
Personal Weather Stations






























Interactive Weather Map New forecast layout! Learn more

10-Day Weather Forecast

Advertisements
Track Severe Weather on mobile